Time;durP1;ratioP1;P1;durP2;ratioP2;P2;SDS_P1;SDS_P2;PMS_P1;PMS_P2;Temp;Humidity;BMP_temperature;BMP_pressure;BME280_temperature;BME280_humidity;BME280_pressure;Samples;Min_cycle;Max_cycle;Signal;HPM_P1;HPM_P2
2022/06/21 05:56:34;;;;;;;;;;;;;;;27.56;86.69;98124.44;5266050;24;19969;-66
2022/06/21 05:59:03;;;;;;;;;;;;;;;27.75;88.71;98131.31;4828799;29;19950;-66
2022/06/21 06:01:51;;;;;;;;;;;;;;;27.77;78.62;98127.91;4828501;29;20246;-66
2022/06/21 06:04:29;;;;;;;;;;;;;;;28.04;75.74;98137.94;4844909;29;19985;-66
2022/06/21 06:06:57;;;;;;;;;;;;;;;27.98;77.69;98135.81;4846580;29;20320;-67
2022/06/21 06:09:46;;;;;;;;;;;;;;;28.06;75.77;98141.88;4833357;29;19954;-66
2022/06/21 06:12:21;;;;;;;;;;;;;;;28.14;76.50;98142.13;4845686;29;19955;-66
2022/06/21 06:14:53;;;;;;;;;;;;;;;28.22;77.48;98137.44;4834110;29;19948;-66
2022/06/21 06:17:20;;;;;;;;;;;;;;;28.21;77.06;98133.00;4842335;29;19994;-64
2022/06/21 06:19:51;;;;;;;;;;;;;;;28.18;76.12;98134.81;4846234;29;19958;-64
2022/06/21 06:22:26;;;;;;;;;;;;;;;28.50;81.60;98130.41;4843896;29;19950;-64
2022/06/21 06:25:00;;;;;;;;;;;;;;;28.30;75.90;98122.03;4846172;29;19949;-64
2022/06/21 06:27:45;;;;;;;;;;;;;;;28.25;76.10;98125.69;4848620;29;19951;-64
2022/06/21 06:30:16;;;;;;;;;;;;;;;28.36;77.87;98127.78;4843323;29;19950;-64
2022/06/21 06:32:46;;;;;;;;;;;;;;;28.46;76.47;98131.97;4849892;29;19950;-64
2022/06/21 06:35:17;;;;;;;;;;;;;;;28.46;77.69;98129.09;4849110;29;19951;-64
2022/06/21 06:37:45;;;;;;;;;;;;;;;28.62;76.29;98139.81;4847506;29;19954;-64
2022/06/21 06:40:19;;;;;;;;;;;;;;;28.53;78.19;98125.69;4844814;29;19954;-65
2022/06/21 06:42:47;;;;;;;;;;;;;;;28.64;77.68;98119.94;4847600;29;19948;-65
2022/06/21 06:45:16;;;;;;;;;;;;;;;28.80;75.54;98130.66;4847284;29;19980;-64
2022/06/21 06:47:53;;;;;;;;;;;;;;;28.80;76.27;98133.53;4848001;29;19948;-64
2022/06/21 06:50:20;;;;;;;;;;;;;;;28.84;75.60;98116.78;4848457;29;20340;-64
2022/06/21 06:52:50;;;;;;;;;;;;;;;28.81;79.15;98117.81;4847940;29;19948;-64
2022/06/21 06:55:17;;;;;;;;;;;;;;;28.95;76.77;98119.66;4837955;29;19948;-65
2022/06/21 06:57:52;;;;;;;;;;;;;;;28.82;79.35;98125.16;4842883;29;19954;-65
2022/06/21 07:00:22;;;;;;;;;;;;;;;28.91;79.02;98121.22;4833105;29;19949;-65
2022/06/21 07:02:56;;;;;;;;;;;;;;;29.03;73.93;98112.03;4834931;29;19958;-66
2022/06/21 07:05:27;;;;;;;;;;;;;;;28.74;83.44;98114.69;4849767;29;19980;-67
2022/06/21 07:07:57;;;;;;;;;;;;;;;28.92;77.85;98123.56;4849279;29;19951;-67
2022/06/21 07:10:26;;;;;;;;;;;;;;;28.83;77.81;98120.19;4848448;29;19950;-67
2022/06/21 07:12:54;;;;;;;;;;;;;;;28.68;80.25;98120.47;4849662;29;19949;-67
2022/06/21 07:15:31;;;;;;;;;;;;;;;28.88;78.77;98119.41;4848654;29;19950;-67
2022/06/21 07:17:58;;;;;;;;;;;;;;;28.80;77.39;98124.91;4848957;29;20366;-67
2022/06/21 07:20:40;;;;;;;;;;;;;;;28.93;77.31;98112.84;4848500;29;19959;-66
2022/06/21 07:23:12;;;;;;;;;;;;;;;28.89;77.69;98115.19;4848978;29;19953;-67
2022/06/21 07:25:44;;;;;;;;;;;;;;;28.94;75.28;98109.44;4848190;29;19965;-67
2022/06/21 07:28:25;;;;;;;;;;;;;;;28.86;75.33;98111.28;4845007;29;19945;-67
2022/06/21 07:30:55;;;;;;;;;;;;;;;29.02;75.37;98106.81;4834944;29;19952;-67
2022/06/21 07:33:26;;;;;;;;;;;;;;;29.12;73.39;98099.44;4849121;29;19956;-67
2022/06/21 07:35:58;;;;;;;;;;;;;;;28.99;76.54;98093.44;4845178;29;20278;-67
2022/06/21 07:38:27;;;;;;;;;;;;;;;29.01;77.21;98090.81;4834756;29;19949;-67
2022/06/21 07:41:25;;;;;;;;;;;;;;;29.12;75.39;98097.34;4842731;29;20348;-67
2022/06/21 07:43:55;;;;;;;;;;;;;;;29.37;73.91;98097.56;4824406;29;20352;-67
2022/06/21 07:46:29;;;;;;;;;;;;;;;29.33;78.23;98094.16;4848067;29;19954;-67
2022/06/21 07:49:04;;;;;;;;;;;;;;;29.40;76.02;98090.72;4849186;29;19947;-67
2022/06/21 07:51:37;;;;;;;;;;;;;;;29.46;76.01;98100.91;4848412;29;20351;-67
2022/06/21 07:54:16;;;;;;;;;;;;;;;29.53;70.74;98085.16;4847515;29;19965;-67
2022/06/21 07:56:50;;;;;;;;;;;;;;;29.23;67.83;98088.69;4847897;29;20386;-67
2022/06/21 07:59:43;;;;;;;;;;;;;;;29.24;71.13;98098.13;4846895;29;19953;-67
2022/06/21 08:07:58;;;;;;;;;;;;;;;29.28;65.47;98084.22;4837122;29;19952;-67
2022/06/21 08:10:31;;;;;;;;;;;;;;;29.21;69.23;98081.91;4848023;29;19952;-67
2022/06/21 08:12:58;;;;;;;;;;;;;;;29.13;67.86;98081.63;4832034;29;19957;-67
2022/06/21 08:15:29;;;;;;;;;;;;;;;29.38;70.01;98088.38;4848312;29;19953;-67
2022/06/21 08:18:01;;;;;;;;;;;;;;;29.32;68.81;98084.72;4835675;29;19973;-67
2022/06/21 08:20:28;;;;;;;;;;;;;;;29.25;70.32;98091.81;4842389;29;19956;-67
2022/06/21 08:22:55;;;;;;;;;;;;;;;29.35;75.04;98094.38;4827352;29;19951;-67
2022/06/21 08:25:36;;;;;;;;;;;;;;;29.41;74.63;98092.28;4845921;29;19946;-67
2022/06/21 08:28:13;;;;;;;;;;;;;;;29.46;65.98;98088.59;4834213;29;19982;-67
2022/06/21 08:30:40;;;;;;;;;;;;;;;29.39;65.16;98089.16;4837320;29;19947;-67
2022/06/21 08:33:07;;;;;;;;;;;;;;;29.55;64.99;98097.72;4843572;29;20344;-67
2022/06/21 08:35:40;;;;;;;;;;;;;;;29.68;64.74;98100.00;4843819;29;19952;-67
2022/06/21 08:38:11;;;;;;;;;;;;;;;29.74;64.39;98097.88;4843190;29;19965;-67
2022/06/21 08:41:00;;;;;;;;;;;;;;;30.02;61.86;98112.13;4839298;29;19974;-67
2022/06/21 08:43:46;;;;;;;;;;;;;;;29.72;63.57;98095.53;4844397;29;19951;-67
2022/06/21 08:46:33;;;;;;;;;;;;;;;29.98;64.85;98106.66;4839692;29;19954;-67
2022/06/21 08:49:19;;;;;;;;;;;;;;;29.89;60.39;98099.13;4840850;29;19956;-67
2022/06/21 08:51:49;;;;;;;;;;;;;;;29.74;55.43;98104.41;4846215;29;19949;-67
2022/06/21 08:54:26;;;;;;;;;;;;;;;29.88;56.55;98100.41;4844852;29;19958;-67
2022/06/21 08:56:59;;;;;;;;;;;;;;;30.05;59.30;98102.44;4845995;29;19967;-67
2022/06/21 08:59:31;;;;;;;;;;;;;;;30.13;58.08;98101.31;4846134;29;19955;-67
2022/06/21 09:02:08;;;;;;;;;;;;;;;30.14;53.15;98108.66;4845493;29;20378;-67
2022/06/21 09:04:53;;;;;;;;;;;;;;;30.19;53.86;98110.72;4845771;29;19951;-67
2022/06/21 09:07:24;;;;;;;;;;;;;;;30.10;53.74;98102.41;4843893;29;19953;-66
2022/06/21 09:09:53;;;;;;;;;;;;;;;30.10;59.21;98102.41;4846015;29;19952;-67
2022/06/21 09:12:28;;;;;;;;;;;;;;;30.18;57.28;98108.34;4844155;29;19953;-67
2022/06/21 09:14:55;;;;;;;;;;;;;;;30.21;57.54;98107.28;4845014;29;19948;-67
2022/06/21 09:17:35;;;;;;;;;;;;;;;30.23;49.08;98108.31;4844352;29;19963;-67
2022/06/21 09:20:21;;;;;;;;;;;;;;;30.24;53.23;98100.44;4846510;29;19949;-67
2022/06/21 09:23:07;;;;;;;;;;;;;;;30.43;53.42;98096.38;4835658;29;20246;-67
2022/06/21 09:25:44;;;;;;;;;;;;;;;30.62;49.62;98084.16;4841068;29;19956;-67
2022/06/21 09:28:26;;;;;;;;;;;;;;;30.69;47.58;98083.56;4845689;29;19956;-67
2022/06/21 09:31:12;;;;;;;;;;;;;;;30.74;51.96;98083.47;4844827;29;19947;-67
2022/06/21 09:33:52;;;;;;;;;;;;;;;30.78;50.37;98083.19;4845871;29;20326;-67
2022/06/21 09:36:27;;;;;;;;;;;;;;;30.75;55.05;98081.38;4839932;29;19954;-67
2022/06/21 09:39:10;;;;;;;;;;;;;;;30.59;50.72;98085.22;4840346;29;20438;-67
2022/06/21 09:41:56;;;;;;;;;;;;;;;30.70;50.81;98071.47;4835789;29;20329;-67
2022/06/21 09:44:35;;;;;;;;;;;;;;;30.62;52.90;98067.59;4841405;29;19945;-67
2022/06/21 09:47:07;;;;;;;;;;;;;;;30.85;44.55;98068.94;4844901;29;20245;-67
2022/06/21 09:49:40;;;;;;;;;;;;;;;31.00;47.19;98068.56;4845070;29;20289;-67
2022/06/21 09:52:46;;;;;;;;;;;;;;;31.11;52.22;98068.41;4846463;29;19949;-67
2022/06/21 09:55:32;;;;;;;;;;;;;;;31.11;49.02;98065.53;4752709;30;19952;-67
2022/06/21 09:58:14;;;;;;;;;;;;;;;30.95;52.32;98061.53;4744273;30;19983;-67
2022/06/21 10:00:45;;;;;;;;;;;;;;;31.11;55.82;98060.53;4811818;29;19960;-67
2022/06/21 10:03:24;;;;;;;;;;;;;;;30.93;59.52;98057.59;4844857;29;19956;-67
2022/06/21 10:06:04;;;;;;;;;;;;;;;31.10;52.01;98052.41;4844019;29;19951;-67
2022/06/21 10:08:47;;;;;;;;;;;;;;;30.98;55.98;98048.84;4844510;29;19947;-67
2022/06/21 10:11:50;;;;;;;;;;;;;;;31.23;57.08;98048.84;4835832;29;19955;-67
2022/06/21 10:14:24;;;;;;;;;;;;;;;31.19;57.85;98043.38;4776719;30;19952;-67
2022/06/21 10:17:00;;;;;;;;;;;;;;;31.20;48.30;98042.06;4830633;29;19954;-67
2022/06/21 10:19:28;;;;;;;;;;;;;;;31.30;48.46;98046.09;4844982;29;20032;-67
2022/06/21 10:22:02;;;;;;;;;;;;;;;31.25;49.86;98041.22;4841094;29;20359;-66
2022/06/21 10:24:29;;;;;;;;;;;;;;;31.48;58.81;98042.50;4840100;29;19958;-66
2022/06/21 10:27:03;;;;;;;;;;;;;;;31.37;49.95;98051.28;4844410;29;20336;-67
2022/06/21 10:29:33;;;;;;;;;;;;;;;31.47;54.31;98051.72;4843048;29;19957;-67
2022/06/21 10:32:06;;;;;;;;;;;;;;;31.59;55.33;98053.91;4844645;29;20319;-67
2022/06/21 10:35:10;;;;;;;;;;;;;;;31.48;50.18;98048.28;4843664;29;19949;-67
2022/06/21 10:37:56;;;;;;;;;;;;;;;31.66;53.60;98058.28;4765340;30;19970;-67
2022/06/21 10:40:23;;;;;;;;;;;;;;;31.60;53.88;98046.78;4840433;29;19945;-67
2022/06/21 10:42:51;;;;;;;;;;;;;;;31.73;48.71;98049.75;4841077;29;19947;-67
2022/06/21 10:45:36;;;;;;;;;;;;;;;31.59;54.93;98048.13;4844642;29;20233;-67
2022/06/21 10:48:06;;;;;;;;;;;;;;;31.65;58.05;98040.13;4833054;29;19951;-67
2022/06/21 10:50:34;;;;;;;;;;;;;;;31.61;46.16;98042.56;4843082;29;19958;-67
2022/06/21 10:53:11;;;;;;;;;;;;;;;31.58;49.80;98032.09;4841896;29;20360;-67
2022/06/21 10:59:09;;;;;;;;;;;;;;;31.86;53.97;98033.81;4843189;29;20266;-67
2022/06/21 11:01:56;;;;;;;;;;;;;;;32.12;51.59;98034.72;4815663;29;20355;-67
2022/06/21 11:04:43;;;;;;;;;;;;;;;32.10;51.92;98036.59;4844342;29;19945;-67
2022/06/21 11:07:33;;;;;;;;;;;;;;;32.10;49.86;98036.59;4842962;29;19952;-67
2022/06/21 11:10:11;;;;;;;;;;;;;;;32.19;47.17;98030.38;4836181;29;19976;-67
2022/06/21 11:12:54;;;;;;;;;;;;;;;31.99;51.89;98036.75;4846490;29;19947;-67
2022/06/21 11:15:44;;;;;;;;;;;;;;;32.17;55.75;98021.47;4847902;29;19953;-67
2022/06/21 11:18:20;;;;;;;;;;;;;;;32.15;50.81;98016.25;4833135;29;19972;-67
2022/06/21 11:20:50;;;;;;;;;;;;;;;32.17;54.43;98022.28;4848473;29;19978;-67
2022/06/21 11:23:36;;;;;;;;;;;;;;;32.24;52.03;98021.63;4844813;29;20354;-67
2022/06/21 11:26:18;;;;;;;;;;;;;;;32.39;49.40;98024.00;4846073;29;20240;-67
2022/06/21 11:29:05;;;;;;;;;;;;;;;32.41;44.17;98021.31;4838224;29;19982;-67
2022/06/21 11:31:40;;;;;;;;;;;;;;;32.35;56.35;98000.41;4836172;29;19963;-67
2022/06/21 11:34:15;;;;;;;;;;;;;;;32.33;47.94;98003.81;4848576;29;19956;-67
2022/06/21 11:36:50;;;;;;;;;;;;;;;32.39;49.00;98001.63;4837273;29;19951;-67
2022/06/21 11:39:21;;;;;;;;;;;;;;;32.45;46.57;97995.75;4839885;29;20249;-67
2022/06/21 11:42:14;;;;;;;;;;;;;;;32.43;48.42;97987.59;4848096;29;19953;-67
2022/06/21 11:45:01;;;;;;;;;;;;;;;32.42;50.31;97986.06;4825782;29;20234;-67
2022/06/21 11:47:40;;;;;;;;;;;;;;;32.45;46.50;97987.81;4841266;29;19959;-67
2022/06/21 11:50:11;;;;;;;;;;;;;;;32.54;45.70;97988.75;4846304;29;19947;-67
2022/06/21 11:52:38;;;;;;;;;;;;;;;32.56;44.79;97986.06;4845611;29;20214;-67
2022/06/21 11:55:11;;;;;;;;;;;;;;;32.45;43.55;97982.03;4847179;29;19948;-67
2022/06/21 11:57:46;;;;;;;;;;;;;;;32.67;47.30;97974.28;4844943;29;20348;-67
2022/06/21 12:00:15;;;;;;;;;;;;;;;32.41;50.05;97969.22;4846803;29;19949;-67
2022/06/21 12:02:56;;;;;;;;;;;;;;;32.44;47.18;97968.13;4842913;29;19949;-67
2022/06/21 12:05:29;;;;;;;;;;;;;;;32.49;49.61;97970.13;4843087;29;19956;-67
2022/06/21 12:08:04;;;;;;;;;;;;;;;32.50;48.77;97962.97;4840871;29;19949;-67
2022/06/21 12:10:39;;;;;;;;;;;;;;;32.53;48.90;97956.13;4847733;29;19956;-67
2022/06/21 12:13:06;;;;;;;;;;;;;;;32.40;50.50;97953.97;4842759;29;19985;-67
2022/06/21 12:15:36;;;;;;;;;;;;;;;32.35;50.41;97946.16;4847248;29;19955;-67
2022/06/21 12:18:15;;;;;;;;;;;;;;;32.46;52.31;97948.84;4844939;29;19964;-67
2022/06/21 12:20:45;;;;;;;;;;;;;;;32.43;50.41;97952.84;4846895;29;19944;-67
2022/06/21 12:23:30;;;;;;;;;;;;;;;32.41;53.00;97952.63;4841932;29;19952;-67
2022/06/21 12:25:57;;;;;;;;;;;;;;;32.50;54.58;97948.50;4842040;29;20366;-67
2022/06/21 12:28:25;;;;;;;;;;;;;;;32.43;60.36;97958.66;4847125;29;19956;-67
2022/06/21 12:30:58;;;;;;;;;;;;;;;32.44;49.51;97954.44;4848029;29;19945;-67
2022/06/21 12:33:30;;;;;;;;;;;;;;;32.42;48.56;97962.09;4846806;29;20328;-67
2022/06/21 12:35:57;;;;;;;;;;;;;;;32.30;58.37;97957.88;4842278;29;20377;-67
2022/06/21 12:38:33;;;;;;;;;;;;;;;32.31;58.49;97962.31;4835210;29;19971;-67
2022/06/21 12:41:03;;;;;;;;;;;;;;;32.37;54.19;97960.09;4842994;29;19951;-67
2022/06/21 12:43:30;;;;;;;;;;;;;;;32.31;58.80;97956.50;4841419;29;19981;-68
2022/06/21 12:46:00;;;;;;;;;;;;;;;32.30;62.78;97955.72;4840124;29;19954;-67
2022/06/21 12:48:39;;;;;;;;;;;;;;;32.38;55.49;97955.84;4836306;29;19947;-67
2022/06/21 12:51:38;;;;;;;;;;;;;;;32.28;54.04;97954.75;4838328;29;19953;-67
2022/06/21 12:54:20;;;;;;;;;;;;;;;32.34;46.69;97961.19;4807719;29;19949;-67
2022/06/21 12:57:02;;;;;;;;;;;;;;;32.37;49.65;97955.09;4845156;29;19982;-67
2022/06/21 12:59:48;;;;;;;;;;;;;;;32.40;50.59;97959.00;4840427;29;19999;-67
2022/06/21 13:02:29;;;;;;;;;;;;;;;32.26;48.70;97963.97;4844700;29;19945;-67
2022/06/21 13:05:16;;;;;;;;;;;;;;;32.25;50.06;97967.41;4844555;29;19947;-67
2022/06/21 13:07:46;;;;;;;;;;;;;;;32.14;49.45;97959.72;4841015;29;19956;-67
2022/06/21 13:10:22;;;;;;;;;;;;;;;32.20;53.88;97971.97;4846355;29;19950;-67
2022/06/21 13:12:52;;;;;;;;;;;;;;;32.22;48.46;97980.09;4843547;29;19953;-67
2022/06/21 13:15:25;;;;;;;;;;;;;;;32.13;49.13;97966.06;4846119;29;19956;-67
2022/06/21 13:18:10;;;;;;;;;;;;;;;32.06;47.91;97978.28;4846308;29;20469;-67
2022/06/21 13:20:40;;;;;;;;;;;;;;;31.88;53.93;97973.28;4844941;29;19956;-67
2022/06/21 13:23:29;;;;;;;;;;;;;;;31.87;51.51;97986.19;4838215;29;19966;-67
2022/06/21 13:26:13;;;;;;;;;;;;;;;31.92;56.09;97985.31;4843126;29;19984;-68
2022/06/21 13:28:45;;;;;;;;;;;;;;;31.92;52.17;97983.19;4850593;29;19946;-68
2022/06/21 13:31:18;;;;;;;;;;;;;;;31.81;51.39;97994.97;4846142;29;19954;-68
2022/06/21 13:33:55;;;;;;;;;;;;;;;31.68;51.75;97992.78;4845447;29;19947;-65
2022/06/21 13:36:29;;;;;;;;;;;;;;;31.55;54.60;97998.50;4845408;29;19966;-65
2022/06/21 13:39:01;;;;;;;;;;;;;;;31.45;49.94;98002.34;4846238;29;20234;-64
2022/06/21 13:44:47;;;;;;;;;;;;;;;31.43;54.77;98004.94;4801981;29;19953;-64
2022/06/21 13:47:23;;;;;;;;;;;;;;;31.35;53.61;98007.69;4831409;29;20339;-65
2022/06/21 13:50:01;;;;;;;;;;;;;;;31.42;54.37;98014.97;4844467;29;19948;-64
2022/06/21 13:52:34;;;;;;;;;;;;;;;31.19;54.82;98005.81;4845842;29;19947;-65
2022/06/21 13:55:26;;;;;;;;;;;;;;;31.03;52.43;97993.13;4842484;29;19956;-64
2022/06/21 13:58:13;;;;;;;;;;;;;;;31.15;54.73;97996.69;4840287;29;19949;-63
2022/06/21 14:00:49;;;;;;;;;;;;;;;31.14;54.35;98000.88;4845271;29;19954;-64
2022/06/21 14:03:16;;;;;;;;;;;;;;;31.20;52.45;97987.94;4844868;29;20231;-63
2022/06/21 14:05:55;;;;;;;;;;;;;;;31.18;52.58;97989.78;4845686;29;19956;-63
2022/06/21 14:08:28;;;;;;;;;;;;;;;31.20;54.57;97985.03;4845972;29;19964;-63
2022/06/21 14:10:59;;;;;;;;;;;;;;;31.17;51.80;97991.94;4845357;29;19953;-63
2022/06/21 14:13:30;;;;;;;;;;;;;;;31.17;53.46;97985.34;4845479;29;19946;-63
2022/06/21 14:16:02;;;;;;;;;;;;;;;31.07;52.27;97987.84;4841171;29;19951;-64
2022/06/21 14:18:54;;;;;;;;;;;;;;;30.97;54.65;98001.09;4845360;29;19947;-64
2022/06/21 14:21:41;;;;;;;;;;;;;;;30.86;51.09;97983.88;4841960;29;19974;-63
2022/06/21 14:24:17;;;;;;;;;;;;;;;30.74;51.69;97984.56;4845603;29;19960;-63
2022/06/21 14:26:47;;;;;;;;;;;;;;;30.54;54.53;97980.81;4837415;29;19956;-63
2022/06/21 14:29:23;;;;;;;;;;;;;;;30.34;52.58;97972.66;4836092;29;20245;-63
2022/06/21 14:32:05;;;;;;;;;;;;;;;30.18;57.83;97979.34;4845768;29;19948;-63
2022/06/21 14:34:48;;;;;;;;;;;;;;;29.98;58.01;97973.25;4830122;29;19960;-64
2022/06/21 14:37:16;;;;;;;;;;;;;;;29.94;55.97;97985.06;4843001;29;19946;-63
2022/06/21 14:39:55;;;;;;;;;;;;;;;29.88;59.85;97976.44;4844276;29;19977;-63
2022/06/21 14:42:33;;;;;;;;;;;;;;;29.79;59.43;97971.03;4844508;29;19958;-63
2022/06/21 14:45:00;;;;;;;;;;;;;;;29.79;60.96;97967.34;4844894;29;19946;-63
2022/06/21 14:47:39;;;;;;;;;;;;;;;29.79;63.15;97964.47;4847599;29;19947;-63
2022/06/21 14:50:16;;;;;;;;;;;;;;;29.81;61.09;97961.84;4839398;29;20238;-63
2022/06/21 14:52:49;;;;;;;;;;;;;;;29.68;60.51;97956.69;4848289;29;20254;-63
2022/06/21 14:55:34;;;;;;;;;;;;;;;29.72;64.08;97956.38;4848300;29;19959;-63
2022/06/21 14:58:12;;;;;;;;;;;;;;;29.86;62.30;97950.25;4832149;29;19954;-63
2022/06/21 15:00:46;;;;;;;;;;;;;;;29.88;64.16;97933.22;4847319;29;19969;-63
2022/06/21 15:03:27;;;;;;;;;;;;;;;30.02;66.13;97934.16;4845530;29;20252;-63
2022/06/21 15:05:59;;;;;;;;;;;;;;;29.98;67.45;97919.22;4848177;29;19964;-63
2022/06/21 15:08:45;;;;;;;;;;;;;;;30.05;66.08;97912.09;4841465;29;19952;-63
2022/06/21 15:14:20;;;;;;;;;;;;;;;30.27;61.23;97895.34;4848577;29;19950;-63
2022/06/21 15:17:02;;;;;;;;;;;;;;;30.03;64.84;97883.03;4848467;29;19967;-63
2022/06/21 15:19:54;;;;;;;;;;;;;;;30.06;57.73;97871.19;4848811;29;19962;-63
2022/06/21 15:22:39;;;;;;;;;;;;;;;29.96;56.63;97867.09;4841516;29;20335;-63
2022/06/21 15:25:16;;;;;;;;;;;;;;;29.85;61.02;97879.53;4845950;29;19955;-63
2022/06/21 15:27:47;;;;;;;;;;;;;;;29.78;60.42;97890.88;4849212;29;19953;-63
2022/06/21 15:30:17;;;;;;;;;;;;;;;29.88;59.23;97897.84;4848069;29;19954;-63
2022/06/21 15:32:52;;;;;;;;;;;;;;;29.83;65.42;97882.16;4847271;29;19948;-63
2022/06/21 15:35:29;;;;;;;;;;;;;;;29.71;64.74;97883.53;4847405;29;20228;-63
2022/06/21 15:38:00;;;;;;;;;;;;;;;29.77;65.63;97867.03;4841291;29;19952;-63
2022/06/21 15:40:40;;;;;;;;;;;;;;;29.73;62.61;97866.50;4845919;29;19960;-64
2022/06/21 15:43:14;;;;;;;;;;;;;;;29.76;62.21;97876.19;4845234;29;19978;-64
2022/06/21 15:45:47;;;;;;;;;;;;;;;29.78;68.37;97882.22;4845087;29;20334;-64
2022/06/21 15:51:12;;;;;;;;;;;;;;;29.77;69.69;97881.44;4842462;29;19947;-64
2022/06/21 15:53:45;;;;;;;;;;;;;;;29.76;67.38;97879.81;4833318;29;19973;-62
2022/06/21 15:56:27;;;;;;;;;;;;;;;29.71;64.10;97880.66;4847633;29;20246;-64
2022/06/21 15:58:54;;;;;;;;;;;;;;;29.68;59.68;97876.00;4841347;29;19950;-64
2022/06/21 16:01:37;;;;;;;;;;;;;;;29.70;61.13;97878.31;4843777;29;20371;-64
2022/06/21 16:04:04;;;;;;;;;;;;;;;29.64;60.42;97880.47;4843955;29;20237;-64
2022/06/21 16:06:45;;;;;;;;;;;;;;;29.60;61.29;97883.66;4843863;29;19986;-63
2022/06/21 16:09:14;;;;;;;;;;;;;;;29.59;57.36;97887.84;4844598;29;20216;-63
2022/06/21 16:11:44;;;;;;;;;;;;;;;29.56;59.77;97877.41;4842640;29;19951;-62
2022/06/21 16:14:16;;;;;;;;;;;;;;;29.60;63.77;97874.22;4847383;29;19976;-66
2022/06/21 16:16:45;;;;;;;;;;;;;;;29.52;58.43;97879.78;4841193;29;19971;-61
2022/06/21 16:19:14;;;;;;;;;;;;;;;29.42;54.84;97887.19;4846547;29;19958;-63
2022/06/21 16:21:44;;;;;;;;;;;;;;;29.31;60.14;97910.34;4844279;29;19956;-63
2022/06/21 16:24:14;;;;;;;;;;;;;;;29.26;59.35;97900.41;4840148;29;19953;-63
2022/06/21 16:26:46;;;;;;;;;;;;;;;29.15;59.16;97914.06;4847663;29;19955;-63
2022/06/21 16:29:45;;;;;;;;;;;;;;;28.96;58.72;97928.31;4847533;29;19948;-64
2022/06/21 16:35:15;;;;;;;;;;;;;;;28.88;61.34;97947.44;4842391;29;19950;-64
2022/06/21 16:37:51;;;;;;;;;;;;;;;28.80;64.96;97952.22;4844729;29;19956;-64
2022/06/21 16:42:54;;;;;;;;;;;;;;;28.75;63.44;97950.16;4848012;29;19974;-64
2022/06/21 16:43:13;;;;;;;;;;;;;;;28.75;63.97;97966.63;4848126;29;19980;-65
2022/06/21 16:45:44;;;;;;;;;;;;;;;28.73;66.63;97949.91;4847774;29;19980;-61
2022/06/21 16:48:17;;;;;;;;;;;;;;;28.66;67.42;97944.66;4846981;29;19952;-62
2022/06/21 16:50:44;;;;;;;;;;;;;;;28.68;67.56;97949.91;4848202;29;20229;-62
2022/06/21 16:53:30;;;;;;;;;;;;;;;28.63;66.41;97943.63;4847741;29;19948;-67
2022/06/21 16:56:00;;;;;;;;;;;;;;;28.60;66.93;97953.34;4847269;29;19968;-66
2022/06/21 16:58:30;;;;;;;;;;;;;;;28.50;67.48;97954.13;4847102;29;19948;-67
2022/06/21 17:01:00;;;;;;;;;;;;;;;28.45;71.37;97949.94;4847290;29;20253;-67
2022/06/21 17:03:41;;;;;;;;;;;;;;;28.34;69.18;97943.47;4847142;29;19953;-67
2022/06/21 17:06:23;;;;;;;;;;;;;;;28.30;65.88;97940.84;4836226;29;19947;-66
2022/06/21 17:09:09;;;;;;;;;;;;;;;28.22;68.91;97941.91;4846551;29;19952;-66
2022/06/21 17:11:54;;;;;;;;;;;;;;;28.23;63.96;97937.72;4842079;29;20354;-66
2022/06/21 17:14:23;;;;;;;;;;;;;;;28.25;61.70;97943.72;4843256;29;20327;-66
2022/06/21 17:16:59;;;;;;;;;;;;;;;28.16;61.10;97941.91;4840778;29;19953;-66
2022/06/21 17:19:26;;;;;;;;;;;;;;;28.26;60.44;97939.53;4844532;29;19952;-67
2022/06/21 17:21:53;;;;;;;;;;;;;;;28.22;62.18;97930.41;4847009;29;20230;-61
2022/06/21 17:24:26;;;;;;;;;;;;;;;28.13;58.64;97924.94;4846453;29;19951;-63
2022/06/21 17:27:00;;;;;;;;;;;;;;;28.14;58.93;97940.88;4836378;29;19953;-62
2022/06/21 17:29:39;;;;;;;;;;;;;;;28.11;59.57;97941.91;4845051;29;19948;-62
2022/06/21 17:32:08;;;;;;;;;;;;;;;28.02;62.61;97943.75;4846794;29;19955;-62
2022/06/21 17:34:40;;;;;;;;;;;;;;;27.96;59.16;97954.47;4845950;29;20333;-63
2022/06/21 17:37:10;;;;;;;;;;;;;;;27.94;60.14;97957.09;4846124;29;20003;-63
2022/06/21 17:39:37;;;;;;;;;;;;;;;27.95;61.88;97973.00;4846689;29;19948;-63
2022/06/21 17:42:25;;;;;;;;;;;;;;;27.94;62.63;97973.53;4846264;29;19990;-65
2022/06/21 17:45:01;;;;;;;;;;;;;;;27.88;61.83;97987.91;4844976;29;19958;-63
2022/06/21 17:47:32;;;;;;;;;;;;;;;27.92;62.11;97990.53;4843228;29;19960;-62
2022/06/21 17:50:02;;;;;;;;;;;;;;;27.89;64.23;98000.19;4830577;29;19948;-62
2022/06/21 17:52:31;;;;;;;;;;;;;;;27.82;67.32;97994.97;4830153;29;19949;-63
2022/06/21 17:55:02;;;;;;;;;;;;;;;27.75;70.64;97981.13;4841824;29;19950;-63
2022/06/21 17:57:38;;;;;;;;;;;;;;;27.68;69.13;97970.91;4843757;29;19970;-63
2022/06/21 18:00:10;;;;;;;;;;;;;;;27.67;69.57;97972.22;4844778;29;19975;-63
2022/06/21 18:02:49;;;;;;;;;;;;;;;27.58;70.04;97963.88;4846583;29;19957;-63
2022/06/21 18:05:16;;;;;;;;;;;;;;;27.45;72.30;97966.47;4846017;29;19960;-63
2022/06/21 18:07:50;;;;;;;;;;;;;;;27.35;72.96;97963.03;4846063;29;20241;-63
2022/06/21 18:10:35;;;;;;;;;;;;;;;27.26;75.01;97960.41;4842100;29;19960;-63
2022/06/21 18:13:04;;;;;;;;;;;;;;;27.16;73.72;97958.28;4846344;29;19957;-62
2022/06/21 18:15:43;;;;;;;;;;;;;;;27.08;73.43;97962.94;4847156;29;19945;-63
2022/06/21 18:18:17;;;;;;;;;;;;;;;27.07;72.23;97965.03;4846627;29;19949;-63
2022/06/21 18:20:51;;;;;;;;;;;;;;;27.03;72.22;97955.91;4846950;29;20394;-63
2022/06/21 18:23:31;;;;;;;;;;;;;;;26.98;70.23;97958.75;4842783;29;19956;-62
2022/06/21 18:25:58;;;;;;;;;;;;;;;26.97;70.48;97957.19;4840799;29;19948;-62
2022/06/21 18:28:38;;;;;;;;;;;;;;;26.92;69.53;97955.09;4843771;29;19956;-62
2022/06/21 18:31:18;;;;;;;;;;;;;;;26.88;68.47;97952.44;4839901;29;19947;-62
2022/06/21 18:33:45;;;;;;;;;;;;;;;26.91;66.27;97951.44;4846183;29;19957;-62
2022/06/21 18:36:36;;;;;;;;;;;;;;;26.90;66.27;97949.84;4843773;29;20359;-62
2022/06/21 18:39:03;;;;;;;;;;;;;;;26.88;61.76;97946.72;4845724;29;20329;-62
2022/06/21 18:41:34;;;;;;;;;;;;;;;26.94;65.16;97935.25;4840467;29;19967;-62
2022/06/21 18:44:02;;;;;;;;;;;;;;;26.89;65.91;97933.16;4841781;29;20338;-63
2022/06/21 18:46:38;;;;;;;;;;;;;;;26.87;64.33;97930.81;4838505;29;19947;-63
2022/06/21 18:49:08;;;;;;;;;;;;;;;26.87;64.32;97935.75;4846031;29;19954;-63
2022/06/21 18:51:54;;;;;;;;;;;;;;;26.88;61.65;97937.31;4842365;29;19948;-63
2022/06/21 18:54:41;;;;;;;;;;;;;;;26.87;62.03;97938.63;4840168;29;19954;-63
2022/06/21 18:57:14;;;;;;;;;;;;;;;26.82;62.95;97919.31;4840403;29;19976;-63
2022/06/21 18:59:57;;;;;;;;;;;;;;;26.88;60.79;97922.97;4841860;29;20311;-63
2022/06/21 19:02:24;;;;;;;;;;;;;;;26.81;61.30;97917.72;4845871;29;19965;-63
2022/06/21 19:11:06;;;;;;;;;;;;;;;26.50;66.78;97899.38;4846335;29;19946;-63
2022/06/21 19:13:37;;;;;;;;;;;;;;;26.39;66.53;97905.03;4841488;29;19953;-63
2022/06/21 19:16:10;;;;;;;;;;;;;;;26.37;66.03;97906.84;4845783;29;19948;-63
2022/06/21 19:18:38;;;;;;;;;;;;;;;26.29;63.97;97897.94;4843260;29;19957;-62
2022/06/21 19:21:07;;;;;;;;;;;;;;;26.28;63.58;97901.34;4845600;29;19970;-62
2022/06/21 19:23:57;;;;;;;;;;;;;;;26.34;62.13;97907.84;4842903;29;19948;-63
2022/06/21 19:26:38;;;;;;;;;;;;;;;26.32;61.26;97913.34;4841407;29;19948;-63
2022/06/21 19:29:18;;;;;;;;;;;;;;;26.35;63.39;97915.97;4842075;29;19949;-63
2022/06/21 19:31:45;;;;;;;;;;;;;;;26.27;64.80;97920.59;4836824;29;20214;-63
2022/06/21 19:34:12;;;;;;;;;;;;;;;26.29;62.07;97938.06;4843355;29;19947;-63
2022/06/21 19:36:40;;;;;;;;;;;;;;;26.31;61.63;97957.66;4848719;29;19948;-63
2022/06/21 19:39:10;;;;;;;;;;;;;;;26.29;62.74;97951.66;4847976;29;19949;-63
2022/06/21 19:41:43;;;;;;;;;;;;;;;26.28;59.69;97939.38;4845160;29;19971;-63
2022/06/21 19:44:13;;;;;;;;;;;;;;;26.35;61.83;97932.38;4844567;29;19950;-63
2022/06/21 19:46:44;;;;;;;;;;;;;;;26.34;60.26;97936.53;4825251;29;19955;-63
2022/06/21 19:49:23;;;;;;;;;;;;;;;26.38;59.57;97949.34;4848027;29;19954;-63
2022/06/21 19:51:50;;;;;;;;;;;;;;;26.39;59.52;97944.38;4848400;29;19950;-62
2022/06/21 19:54:36;;;;;;;;;;;;;;;26.42;59.32;97941.28;4846895;29;19965;-63